Time;durP1;ratioP1;P1;durP2;ratioP2;P2;SDS_P1;SDS_P2;PMS_P1;PMS_P2;Temp;Humidity;BMP_temperature;BMP_pressure;BME280_temperature;BME280_humidity;BME280_pressure;Samples;Min_cycle;Max_cycle;Signal;HPM_P1;HPM_P2
2022/11/21 00:08:33;;;;;;;23.85;13.30;;;3.10;99.90;;;;;;20631248;28;20312;-41
2022/11/21 00:18:35;;;;;;;26.80;14.05;;;3.10;99.90;;;;;;20622282;28;20832;-40
2022/11/21 00:28:36;;;;;;;28.13;14.98;;;3.20;99.90;;;;;;20626387;28;20066;-40
2022/11/21 00:38:37;;;;;;;22.55;12.05;;;3.20;99.90;;;;;;20621025;28;20358;-40
2022/11/21 00:48:38;;;;;;;25.85;14.55;;;3.10;99.90;;;;;;20626273;28;21272;-40
2022/11/21 00:58:39;;;;;;;27.80;13.32;;;3.10;99.90;;;;;;20657478;28;20047;-41
2022/11/21 01:08:42;;;;;;;22.25;12.13;;;3.00;99.90;;;;;;20646694;28;20456;-40
2022/11/21 01:18:44;;;;;;;27.15;14.32;;;3.10;99.90;;;;;;20648390;28;20151;-40
2022/11/21 01:28:45;;;;;;;24.60;14.25;;;3.00;99.90;;;;;;20658420;28;20037;-41
2022/11/21 01:38:49;;;;;;;26.73;12.73;;;3.00;99.90;;;;;;20648212;28;20502;-41
2022/11/21 01:48:53;;;;;;;23.20;13.40;;;3.00;99.90;;;;;;20657441;28;20079;-41
2022/11/21 01:58:57;;;;;;;29.42;14.82;;;3.00;99.90;;;;;;20649241;28;20061;-41
2022/11/21 02:08:59;;;;;;;24.55;12.30;;;3.00;99.90;;;;;;20635342;28;20262;-41
2022/11/21 02:19:00;;;;;;;27.95;13.48;;;3.00;99.90;;;;;;20639732;28;20078;-41
2022/11/21 02:29:02;;;;;;;26.50;12.13;;;3.00;99.90;;;;;;20626673;28;20100;-41
2022/11/21 02:39:05;;;;;;;27.98;14.90;;;2.80;99.90;;;;;;20636673;28;20123;-40
2022/11/21 02:49:08;;;;;;;25.73;14.07;;;2.80;99.90;;;;;;20633027;28;20066;-40
2022/11/21 02:59:09;;;;;;;24.38;11.90;;;2.90;99.90;;;;;;20638767;28;20082;-42
2022/11/21 03:09:11;;;;;;;19.25;11.70;;;2.80;99.90;;;;;;20629414;28;20033;-40
2022/11/21 03:19:12;;;;;;;24.17;11.50;;;2.70;99.90;;;;;;20622281;28;20550;-40
2022/11/21 03:29:13;;;;;;;30.95;11.18;;;2.80;99.90;;;;;;20650262;28;20434;-41
2022/11/21 03:39:14;;;;;;;33.63;15.45;;;2.60;99.90;;;;;;20648603;28;20079;-41
2022/11/21 03:49:15;;;;;;;21.52;13.48;;;2.50;99.90;;;;;;20647036;28;20045;-41
2022/11/21 03:59:16;;;;;;;34.83;15.65;;;2.50;99.90;;;;;;20641667;28;20162;-41
2022/11/21 04:09:17;;;;;;;37.35;16.23;;;2.60;99.90;;;;;;20647788;28;20117;-41
2022/11/21 04:19:18;;;;;;;35.85;16.88;;;2.60;99.90;;;;;;20647116;28;20223;-41
2022/11/21 04:29:19;;;;;;;35.22;17.33;;;2.70;99.90;;;;;;20646799;28;20599;-41
2022/11/21 04:39:20;;;;;;;62.97;20.52;;;2.60;99.90;;;;;;20631351;28;20516;-41
2022/11/21 04:49:21;;;;;;;37.72;18.52;;;2.70;99.90;;;;;;20630660;28;21941;-41
2022/11/21 04:59:22;;;;;;;66.82;24.85;;;2.70;99.90;;;;;;20647880;28;20611;-41
2022/11/21 05:09:23;;;;;;;30.23;17.63;;;2.70;99.90;;;;;;20640445;28;20116;-41
2022/11/21 05:19:24;;;;;;;64.03;22.05;;;2.70;99.90;;;;;;20643576;28;20058;-41
2022/11/21 05:29:25;;;;;;;31.98;18.70;;;2.70;99.90;;;;;;20635037;28;20073;-41
2022/11/21 05:39:27;;;;;;;40.30;20.80;;;2.70;99.90;;;;;;20634006;28;20661;-40
2022/11/21 05:49:27;;;;;;;48.58;23.17;;;2.80;99.90;;;;;;20643408;28;20141;-41
2022/11/21 05:59:28;;;;;;;47.95;23.15;;;2.90;99.90;;;;;;20647223;28;20054;-41
2022/11/21 06:09:29;;;;;;;43.88;18.95;;;3.00;99.90;;;;;;20637684;28;20046;-41
2022/11/21 06:19:30;;;;;;;52.33;22.75;;;3.00;99.90;;;;;;20635891;28;20433;-41
2022/11/21 06:29:31;;;;;;;37.88;20.90;;;3.10;99.90;;;;;;20632227;28;20066;-41
2022/11/21 06:39:33;;;;;;;49.65;18.73;;;3.20;99.90;;;;;;20613696;28;20243;-40
2022/11/21 06:49:34;;;;;;;31.73;17.48;;;3.20;99.90;;;;;;20630518;28;20046;-40
2022/11/21 06:59:35;;;;;;;28.52;16.50;;;3.30;99.90;;;;;;20624900;28;20512;-40
2022/11/21 07:09:36;;;;;;;30.85;15.07;;;3.40;99.90;;;;;;20630303;28;20069;-41
2022/11/21 07:19:37;;;;;;;23.60;15.35;;;3.40;99.90;;;;;;20604511;28;20592;-40
2022/11/21 07:29:38;;;;;;;26.40;13.70;;;3.50;99.90;;;;;;20603596;28;20658;-40
2022/11/21 07:39:39;;;;;;;29.83;13.77;;;3.60;99.90;;;;;;20628674;28;20553;-41
2022/11/21 07:49:40;;;;;;;38.83;14.60;;;3.70;99.90;;;;;;20620318;28;20081;-41
2022/11/21 07:59:41;;;;;;;29.75;18.02;;;3.80;99.90;;;;;;20618141;28;20446;-40
2022/11/21 08:09:42;;;;;;;34.90;16.98;;;3.90;99.90;;;;;;20628094;28;21133;-41
2022/11/21 08:19:43;;;;;;;36.22;16.50;;;4.00;99.90;;;;;;20621102;28;20074;-40
2022/11/21 08:29:44;;;;;;;27.63;15.23;;;4.00;99.90;;;;;;20617670;28;20037;-41
2022/11/21 08:39:45;;;;;;;38.78;12.60;;;4.10;99.90;;;;;;20606440;28;20129;-40
2022/11/21 08:49:47;;;;;;;24.08;14.65;;;4.20;99.90;;;;;;20602821;28;20656;-41
2022/11/21 08:59:48;;;;;;;26.75;15.52;;;4.40;99.90;;;;;;20555972;28;20043;-41
2022/11/21 09:09:49;;;;;;;29.65;14.57;;;4.60;99.90;;;;;;20604052;28;20042;-40
2022/11/21 09:19:50;;;;;;;27.08;16.17;;;4.80;99.90;;;;;;20613316;28;20571;-40
2022/11/21 09:29:51;;;;;;;25.52;14.50;;;4.90;99.90;;;;;;20625111;28;20225;-40
2022/11/21 09:39:52;;;;;;;28.30;14.32;;;5.00;99.90;;;;;;20613154;28;20650;-41
2022/11/21 09:50:13;;;;;;;24.05;13.85;;;5.10;99.90;;;;;;20612180;28;20069;-41
2022/11/21 10:00:25;;;;;;;29.67;14.32;;;5.10;99.90;;;;;;20572221;28;20054;-41
2022/11/21 10:10:29;;;;;;;31.40;17.45;;;5.30;99.90;;;;;;20622343;28;20199;-43
2022/11/21 10:20:42;;;;;;;28.67;15.05;;;5.50;99.90;;;;;;20615431;28;20173;-41
2022/11/21 10:30:44;;;;;;;28.27;15.00;;;5.70;99.90;;;;;;20622297;28;20380;-40
2022/11/21 10:40:54;;;;;;;29.33;15.02;;;5.90;99.90;;;;;;20608825;28;20737;-40
2022/11/21 10:51:11;;;;;;;19.63;11.38;;;6.40;99.90;;;;;;20611043;28;20185;-40
2022/11/21 11:01:27;;;;;;;16.80;10.03;;;6.80;99.90;;;;;;20593308;28;20050;-40
2022/11/21 11:11:28;;;;;;;17.33;8.85;;;7.40;99.90;;;;;;20617849;28;20509;-42
2022/11/21 11:21:39;;;;;;;16.65;7.38;;;7.90;99.90;;;;;;20615057;28;20121;-42
2022/11/21 11:31:51;;;;;;;13.18;6.45;;;8.30;99.90;;;;;;20614440;28;20421;-41
2022/11/21 11:52:35;;;;;;;10.33;3.27;;;9.30;99.90;;;;;;20616352;28;20049;-42
2022/11/21 12:03:25;;;;;;;4.78;2.45;;;10.20;99.90;;;;;;20576419;28;20693;-41
2022/11/21 12:13:28;;;;;;;2.80;1.35;;;10.40;99.90;;;;;;20527409;28;20914;-41
2022/11/21 12:23:45;;;;;;;2.90;1.67;;;10.50;99.90;;;;;;20585349;28;20053;-40
2022/11/21 12:34:12;;;;;;;2.27;0.80;;;10.70;99.90;;;;;;20581205;28;20931;-41
2022/11/21 12:44:35;;;;;;;3.22;0.93;;;10.20;99.90;;;;;;20602697;28;20459;-42
2022/11/21 12:54:42;;;;;;;3.08;1.95;;;9.40;99.90;;;;;;20606355;28;21782;-42
2022/11/21 13:04:46;;;;;;;4.43;1.37;;;9.00;99.90;;;;;;20587012;28;21964;-42
2022/11/21 13:15:03;;;;;;;2.70;1.10;;;8.60;99.90;;;;;;20607736;28;20142;-42
2022/11/21 13:25:12;;;;;;;3.33;1.50;;;8.60;99.90;;;;;;20611652;28;20126;-41
2022/11/21 13:35:19;;;;;;;1.92;0.70;;;8.60;99.90;;;;;;20603426;28;20560;-42
2022/11/21 13:45:48;;;;;;;2.00;1.20;;;8.40;99.90;;;;;;20586494;28;20054;-42
2022/11/21 13:56:25;;;;;;;1.90;0.73;;;8.30;99.90;;;;;;20592712;28;20276;-42
2022/11/21 14:06:33;;;;;;;6.00;2.55;;;8.30;99.90;;;;;;20614153;28;20041;-41
2022/11/21 14:16:43;;;;;;;2.92;1.30;;;8.20;99.90;;;;;;20607573;28;20873;-42
2022/11/21 14:26:49;;;;;;;4.20;2.67;;;8.10;99.90;;;;;;20614283;28;20196;-42
2022/11/21 14:36:51;;;;;;;6.05;1.98;;;8.10;99.90;;;;;;20613931;28;20111;-42
2022/11/21 14:47:07;;;;;;;6.30;2.72;;;8.10;99.90;;;;;;20605601;28;20848;-42
2022/11/21 14:57:18;;;;;;;3.17;1.50;;;8.10;99.90;;;;;;20597613;28;20050;-42
2022/11/21 15:07:26;;;;;;;2.17;1.30;;;8.00;99.90;;;;;;20604662;28;20128;-43
2022/11/21 15:17:28;;;;;;;3.95;1.65;;;8.00;99.90;;;;;;20627163;28;20112;-41
2022/11/21 15:27:31;;;;;;;10.10;2.65;;;7.90;99.90;;;;;;20604654;28;20125;-43
2022/11/21 15:37:32;;;;;;;6.00;1.95;;;7.90;99.90;;;;;;20628548;28;20092;-41
2022/11/21 15:47:33;;;;;;;4.57;2.33;;;7.80;99.90;;;;;;20605516;28;20128;-42
2022/11/21 15:57:34;;;;;;;4.70;1.75;;;7.90;99.90;;;;;;20612291;28;20511;-42
2022/11/21 16:07:35;;;;;;;4.03;2.17;;;7.80;99.90;;;;;;20604921;28;20104;-42
2022/11/21 16:17:38;;;;;;;3.47;1.60;;;7.80;99.90;;;;;;20606328;28;20066;-42
2022/11/21 16:27:39;;;;;;;4.80;2.47;;;7.70;99.90;;;;;;20599822;28;21496;-43
2022/11/21 16:37:40;;;;;;;6.45;2.30;;;7.70;99.90;;;;;;20613410;28;20053;-43
2022/11/21 16:47:41;;;;;;;3.10;2.22;;;7.60;99.90;;;;;;20603793;28;20053;-43
2022/11/21 16:57:42;;;;;;;2.58;1.10;;;7.60;99.90;;;;;;20607451;28;20061;-43
2022/11/21 17:07:43;;;;;;;3.65;2.20;;;7.50;99.90;;;;;;20625043;28;20054;-42
2022/11/21 17:17:44;;;;;;;3.00;1.60;;;7.30;99.90;;;;;;20632593;28;20294;-42
2022/11/21 17:27:45;;;;;;;4.15;1.60;;;7.00;99.90;;;;;;20614257;28;20708;-42
2022/11/21 17:37:46;;;;;;;3.30;1.58;;;6.90;99.90;;;;;;20638382;28;20426;-42
2022/11/21 17:47:47;;;;;;;2.63;1.50;;;6.90;99.90;;;;;;20631446;28;20129;-43
2022/11/21 17:57:48;;;;;;;6.50;3.45;;;6.90;99.90;;;;;;20623272;28;20041;-42
2022/11/21 18:07:49;;;;;;;4.20;2.13;;;6.90;99.90;;;;;;20629083;28;20156;-43
2022/11/21 18:17:50;;;;;;;4.05;2.10;;;6.90;99.90;;;;;;20632311;28;20038;-43
2022/11/21 18:27:51;;;;;;;4.45;2.58;;;7.00;99.90;;;;;;20629566;28;20058;-42
2022/11/21 18:37:52;;;;;;;6.65;1.98;;;7.00;99.90;;;;;;20621529;28;20073;-42
2022/11/21 18:47:53;;;;;;;4.25;1.48;;;7.10;99.90;;;;;;20624238;28;20069;-41
2022/11/21 18:57:55;;;;;;;4.53;1.83;;;7.10;99.90;;;;;;20593856;28;20465;-42
2022/11/21 19:07:56;;;;;;;3.90;1.58;;;7.20;99.90;;;;;;20635495;28;20080;-43
2022/11/21 19:17:57;;;;;;;5.97;1.60;;;7.30;99.90;;;;;;20635124;28;20499;-42
2022/11/21 19:27:59;;;;;;;2.97;1.63;;;7.20;99.90;;;;;;20635821;28;20406;-42
2022/11/21 19:38:00;;;;;;;4.45;1.60;;;7.20;99.90;;;;;;20623210;28;20185;-43
2022/11/21 19:48:01;;;;;;;6.53;2.63;;;7.20;99.90;;;;;;20617049;28;20062;-43
2022/11/21 19:58:02;;;;;;;6.18;3.13;;;7.00;99.90;;;;;;20608194;28;20054;-41
2022/11/21 20:08:04;;;;;;;4.03;1.63;;;6.90;99.90;;;;;;20598163;28;20662;-41
2022/11/21 20:18:05;;;;;;;8.80;2.08;;;6.80;99.90;;;;;;20609549;28;20050;-40
2022/11/21 20:28:06;;;;;;;5.57;2.58;;;6.80;99.90;;;;;;20605181;28;20045;-41
2022/11/21 20:38:07;;;;;;;7.70;2.47;;;6.70;99.90;;;;;;20616464;28;20108;-42
2022/11/21 20:48:08;;;;;;;5.18;2.17;;;6.60;99.90;;;;;;20622563;28;20038;-41
2022/11/21 20:58:09;;;;;;;5.85;2.40;;;6.70;99.90;;;;;;20628066;28;20540;-41
2022/11/21 21:08:10;;;;;;;4.60;2.25;;;6.70;99.90;;;;;;20642696;28;20077;-42
2022/11/21 21:18:11;;;;;;;6.43;2.65;;;6.70;99.90;;;;;;20652477;28;20061;-42
2022/11/21 21:28:12;;;;;;;4.82;1.90;;;6.70;99.90;;;;;;20650812;28;20409;-42
2022/11/21 21:38:13;;;;;;;3.78;1.52;;;6.70;99.90;;;;;;20634173;28;20054;-41
2022/11/21 21:48:14;;;;;;;6.80;3.45;;;6.70;99.90;;;;;;20575528;28;20128;-41
2022/11/21 21:58:15;;;;;;;4.15;2.38;;;6.70;99.90;;;;;;20631664;28;20058;-43
2022/11/21 22:08:16;;;;;;;11.40;2.72;;;6.70;99.90;;;;;;20643135;28;20061;-41
2022/11/21 22:18:17;;;;;;;3.60;2.10;;;6.70;99.90;;;;;;20669268;28;20054;-42
2022/11/21 22:28:18;;;;;;;8.63;2.10;;;6.70;99.90;;;;;;20658837;28;20042;-43
2022/11/21 22:38:20;;;;;;;8.75;2.55;;;6.70;99.90;;;;;;20664582;28;20452;-42
2022/11/21 22:48:21;;;;;;;8.75;2.38;;;6.70;99.90;;;;;;20645628;28;20989;-44
2022/11/21 22:58:22;;;;;;;4.22;2.53;;;6.80;99.90;;;;;;20642457;28;20493;-42
2022/11/21 23:08:23;;;;;;;6.32;2.30;;;6.80;99.90;;;;;;20654009;28;20552;-43
2022/11/21 23:18:25;;;;;;;7.97;2.45;;;6.80;99.90;;;;;;20643300;28;21570;-42
2022/11/21 23:28:26;;;;;;;6.97;3.05;;;6.80;99.90;;;;;;20643613;28;20568;-43
2022/11/21 23:38:27;;;;;;;5.40;2.67;;;6.80;99.90;;;;;;20652631;28;20541;-43
2022/11/21 23:48:28;;;;;;;6.80;2.83;;;6.90;99.90;;;;;;20638856;28;20136;-43
2022/11/21 23:58:29;;;;;;;5.38;3.08;;;6.90;99.90;;;;;;20645572;28;20045;-43
